Time;durP1;ratioP1;P1;durP2;ratioP2;P2;SDS_P1;SDS_P2;PMS_P1;PMS_P2;Temp;Humidity;BMP_temperature;BMP_pressure;BME280_temperature;BME280_humidity;BME280_pressure;Samples;Min_cycle;Max_cycle;Signal;HPM_P1;HPM_P2
2023/03/31 00:00:25;;;;;;;7.05;4.50;;;;;;;1.93;59.89;99187.94;5015083;28;20044;-52
2023/03/31 00:02:52;;;;;;;5.43;4.28;;;;;;;1.96;60.36;99174.63;5021710;28;20029;-54
2023/03/31 00:05:20;;;;;;;5.13;4.47;;;;;;;1.91;60.03;99181.91;5034789;28;20025;-52
2023/03/31 00:07:47;;;;;;;4.95;4.18;;;;;;;1.81;60.17;99187.72;5020102;28;20038;-52
2023/03/31 00:10:13;;;;;;;6.85;4.57;;;;;;;1.75;60.70;99185.41;5015083;28;20046;-52
2023/03/31 00:12:39;;;;;;;5.53;4.68;;;;;;;1.73;60.87;99179.38;5014633;28;20117;-56
2023/03/31 00:15:05;;;;;;;7.13;4.88;;;;;;;1.72;60.71;99180.31;5014653;28;20113;-57
2023/03/31 00:17:32;;;;;;;6.07;4.63;;;;;;;1.71;61.13;99176.78;5014607;28;20433;-56
2023/03/31 00:19:59;;;;;;;7.35;4.68;;;;;;;1.62;60.78;99152.69;5013884;28;20528;-51
2023/03/31 00:22:26;;;;;;;7.50;5.15;;;;;;;1.84;60.77;99179.63;5013582;28;20365;-62
2023/03/31 00:24:52;;;;;;;6.60;4.85;;;;;;;1.86;60.64;99172.47;5014755;28;20385;-57
2023/03/31 00:27:18;;;;;;;9.38;4.97;;;;;;;1.84;60.29;99190.19;5014368;28;20037;-58
2023/03/31 00:29:44;;;;;;;7.00;5.07;;;;;;;1.85;60.53;99188.41;5014327;28;20029;-57
2023/03/31 00:32:10;;;;;;;5.35;4.57;;;;;;;1.77;60.41;99180.03;5014227;28;20106;-56
2023/03/31 00:34:37;;;;;;;5.72;4.50;;;;;;;1.76;60.43;99184.47;5013363;28;20030;-52
2023/03/31 00:37:03;;;;;;;8.20;5.00;;;;;;;1.69;60.79;99180.47;5014099;28;20437;-58
2023/03/31 00:39:32;;;;;;;6.63;4.60;;;;;;;1.45;60.49;99146.56;5014271;28;20054;-58
2023/03/31 00:41:58;;;;;;;5.60;4.45;;;;;;;1.60;60.82;99178.31;5014311;28;20044;-54
2023/03/31 00:44:24;;;;;;;6.45;4.40;;;;;;;1.61;61.18;99183.53;5013924;28;20037;-60
2023/03/31 00:47:03;;;;;;;6.07;4.40;;;;;;;1.60;60.97;99170.41;5015370;28;20065;-54
2023/03/31 00:49:31;;;;;;;4.75;4.30;;;;;;;1.61;61.00;99172.97;5014281;28;20460;-57
2023/03/31 00:52:06;;;;;;;5.22;4.55;;;;;;;1.61;60.89;99172.09;5013836;28;20058;-59
2023/03/31 00:54:34;;;;;;;6.70;4.57;;;;;;;1.54;60.89;99168.94;5013288;28;20117;-58
2023/03/31 00:57:02;;;;;;;7.78;4.78;;;;;;;1.55;60.99;99174.13;5025556;28;20456;-57
2023/03/31 00:59:32;;;;;;;5.70;4.13;;;;;;;1.63;60.82;99175.50;5032931;28;20112;-60
2023/03/31 01:02:01;;;;;;;5.15;4.40;;;;;;;1.64;60.76;99171.94;5032684;28;20428;-57
2023/03/31 01:04:32;;;;;;;5.10;4.50;;;;;;;1.64;60.64;99164.88;5032610;28;20475;-62
2023/03/31 01:07:08;;;;;;;4.75;4.28;;;;;;;1.70;60.75;99169.81;5033595;28;20063;-59
2023/03/31 01:09:34;;;;;;;5.10;4.45;;;;;;;1.67;60.69;99159.44;5033491;28;20479;-58
2023/03/31 01:12:03;;;;;;;8.10;4.45;;;;;;;1.51;60.35;99125.13;5019776;28;20432;-56
2023/03/31 01:14:30;;;;;;;4.82;4.05;;;;;;;1.70;60.40;99145.22;5012605;28;20025;-55
2023/03/31 01:16:55;;;;;;;5.45;4.07;;;;;;;1.70;60.42;99155.78;5013702;28;20444;-53
2023/03/31 01:19:44;;;;;;;5.28;3.95;;;;;;;1.71;60.75;99142.50;5013754;28;20057;-55
2023/03/31 01:22:25;;;;;;;4.15;3.75;;;;;;;1.61;60.84;99136.03;5013777;28;20060;-53
2023/03/31 01:25:00;;;;;;;4.47;3.90;;;;;;;1.52;60.77;99134.75;5013307;28;20037;-55
2023/03/31 01:27:52;;;;;;;4.18;3.78;;;;;;;1.55;61.17;99129.28;5013514;28;20042;-55
2023/03/31 01:30:33;;;;;;;4.38;3.65;;;;;;;1.50;60.99;99133.09;5012385;28;20077;-55
2023/03/31 01:33:26;;;;;;;6.63;3.78;;;;;;;1.51;61.13;99134.81;5013472;28;20034;-60
2023/03/31 01:36:31;;;;;;;6.95;3.35;;;;;;;1.54;61.34;99134.63;5013270;28;20029;-55
2023/03/31 01:39:00;;;;;;;3.80;3.30;;;;;;;1.41;61.10;99124.75;5013379;28;20088;-53
2023/03/31 01:41:44;;;;;;;4.82;3.08;;;;;;;1.33;61.21;99128.75;5013459;28;20038;-52
2023/03/31 01:44:39;;;;;;;3.25;2.72;;;;;;;1.26;61.26;99126.44;5013141;28;20034;-55
2023/03/31 01:47:17;;;;;;;4.28;2.63;;;;;;;1.11;61.82;99127.25;5014004;28;20452;-57
2023/03/31 01:49:56;;;;;;;4.25;3.03;;;;;;;1.04;61.88;99125.88;5012248;28;20122;-56
2023/03/31 01:52:35;;;;;;;3.70;2.92;;;;;;;0.89;62.48;99131.00;5012949;28;20025;-54
2023/03/31 01:55:11;;;;;;;6.75;2.95;;;;;;;0.77;62.67;99123.75;5013234;28;20425;-60
2023/03/31 01:57:51;;;;;;;4.95;3.08;;;;;;;0.88;62.45;99126.66;5015409;28;20060;-55
2023/03/31 02:00:24;;;;;;;5.45;2.85;;;;;;;0.87;62.78;99119.69;5032544;28;20033;-56
2023/03/31 02:02:58;;;;;;;3.08;2.78;;;;;;;0.92;62.62;99122.09;5032712;28;20041;-55
2023/03/31 02:05:29;;;;;;;4.25;2.90;;;;;;;0.93;62.90;99123.81;5031680;28;20029;-55
2023/03/31 02:08:02;;;;;;;3.08;2.78;;;;;;;0.91;62.67;99115.97;5032397;28;20037;-52
2023/03/31 02:10:31;;;;;;;3.72;2.97;;;;;;;0.84;62.58;99114.59;5034819;28;20467;-52
2023/03/31 02:13:00;;;;;;;3.67;3.20;;;;;;;0.75;62.67;99105.38;5029207;28;20037;-55
2023/03/31 02:15:30;;;;;;;5.28;3.40;;;;;;;0.66;63.54;99111.97;5015744;28;20089;-56
2023/03/31 02:17:58;;;;;;;4.78;3.70;;;;;;;0.60;63.54;99107.00;5015946;28;20036;-54
2023/03/31 02:20:27;;;;;;;3.75;3.10;;;;;;;0.51;63.61;99110.13;5016648;28;20109;-54
2023/03/31 02:22:56;;;;;;;4.22;3.60;;;;;;;0.49;64.06;99114.63;5016665;28;20052;-53
2023/03/31 02:25:27;;;;;;;4.63;3.58;;;;;;;0.46;64.08;99122.66;5016915;28;20041;-58
2023/03/31 02:27:59;;;;;;;3.85;3.13;;;;;;;0.42;63.94;99106.19;5016851;28;20034;-51
2023/03/31 02:30:35;;;;;;;3.42;3.08;;;;;;;0.37;64.04;99122.19;5015430;28;20388;-56
2023/03/31 02:33:03;;;;;;;4.53;2.78;;;;;;;0.25;63.63;99109.66;5016789;28;20091;-55
2023/03/31 02:35:29;;;;;;;4.60;2.88;;;;;;;0.18;63.84;99113.50;5017006;28;20036;-52
2023/03/31 02:37:57;;;;;;;8.38;3.00;;;;;;;0.13;63.67;99130.38;5017568;28;20091;-53
2023/03/31 02:40:26;;;;;;;3.85;2.80;;;;;;;-0.01;63.92;99119.66;5015128;28;20069;-54
2023/03/31 02:42:52;;;;;;;3.33;2.78;;;;;;;-0.01;64.21;99117.88;5016272;28;20038;-53
2023/03/31 02:45:37;;;;;;;3.42;3.00;;;;;;;0.01;64.37;99123.09;5015498;28;20026;-53
2023/03/31 02:48:05;;;;;;;3.70;3.13;;;;;;;-0.12;64.42;99122.84;5016797;28;20061;-54
2023/03/31 02:50:38;;;;;;;3.20;2.80;;;;;;;-0.17;65.24;99112.53;5030814;28;20098;-54
2023/03/31 02:53:49;;;;;;;3.92;3.22;;;;;;;-0.15;65.39;99122.94;5036377;28;20049;-60
2023/03/31 02:56:31;;;;;;;3.67;3.30;;;;;;;-0.20;65.08;99115.31;5035767;28;20041;-58
2023/03/31 02:59:00;;;;;;;3.45;2.97;;;;;;;-0.28;65.01;99117.41;5018350;28;20079;-51
2023/03/31 03:01:47;;;;;;;5.35;3.28;;;;;;;-0.24;65.60;99132.16;5035798;28;20037;-54
2023/03/31 03:04:28;;;;;;;5.10;3.10;;;;;;;-0.31;65.50;99141.25;5035466;28;20025;-51
2023/03/31 03:07:10;;;;;;;4.03;3.17;;;;;;;-0.27;65.09;99127.00;5035669;28;20041;-54
2023/03/31 03:09:56;;;;;;;3.65;3.28;;;;;;;-0.25;65.27;99113.81;5035403;28;20359;-55
2023/03/31 03:12:51;;;;;;;2.92;2.42;;;;;;;-0.10;65.15;99117.47;5034698;28;20036;-54
2023/03/31 03:15:45;;;;;;;5.00;3.22;;;;;;;-0.11;64.47;99115.78;5035624;28;20029;-54
2023/03/31 03:18:11;;;;;;;4.22;3.22;;;;;;;-0.09;64.54;99124.44;5024143;28;20058;-57
2023/03/31 03:20:41;;;;;;;4.30;3.55;;;;;;;-0.42;65.54;99101.47;5015475;28;20092;-54
2023/03/31 03:23:06;;;;;;;4.32;3.50;;;;;;;-0.30;65.76;99125.41;5014619;28;20025;-52
2023/03/31 03:25:32;;;;;;;6.10;3.90;;;;;;;-0.18;65.77;99102.91;5015983;28;20037;-56
2023/03/31 03:27:58;;;;;;;6.72;4.18;;;;;;;0.01;65.35;99128.34;5015322;28;20083;-59
2023/03/31 03:30:24;;;;;;;7.03;3.80;;;;;;;0.16;65.14;99108.31;5015556;28;20034;-58
2023/03/31 03:32:49;;;;;;;4.78;3.75;;;;;;;0.26;64.66;99092.94;5015381;28;20099;-57
2023/03/31 03:35:15;;;;;;;4.95;3.70;;;;;;;0.40;64.32;99092.22;5015371;28;20472;-57
2023/03/31 03:37:40;;;;;;;8.20;3.88;;;;;;;0.52;64.45;99096.03;5015276;28;20029;-55
2023/03/31 03:40:07;;;;;;;4.50;3.85;;;;;;;0.66;63.88;99090.88;5015184;28;20045;-63
2023/03/31 03:42:34;;;;;;;4.35;3.90;;;;;;;0.74;63.58;99092.28;5015486;28;20070;-54
2023/03/31 03:45:00;;;;;;;4.30;3.90;;;;;;;0.84;63.12;99083.81;5015047;28;20044;-55
2023/03/31 03:47:26;;;;;;;4.18;3.70;;;;;;;0.89;63.02;99080.09;5015218;28;20021;-57
2023/03/31 03:49:52;;;;;;;4.60;3.90;;;;;;;0.95;62.84;99090.31;5015114;28;20090;-56
2023/03/31 03:52:17;;;;;;;5.82;4.45;;;;;;;0.96;63.12;99090.22;5014906;28;20022;-58
2023/03/31 03:54:43;;;;;;;4.47;3.92;;;;;;;1.02;62.63;99075.03;5014878;28;20100;-53
2023/03/31 03:57:08;;;;;;;6.15;3.60;;;;;;;1.03;62.41;99072.28;5014959;28;20480;-59
2023/03/31 03:59:33;;;;;;;5.57;4.20;;;;;;;1.07;62.38;99065.06;5014996;28;20040;-59
2023/03/31 04:01:59;;;;;;;6.20;4.35;;;;;;;1.08;62.41;99057.06;5020906;28;20356;-56
2023/03/31 04:04:24;;;;;;;7.05;4.53;;;;;;;0.98;62.36;99042.69;5034756;28;20038;-57
2023/03/31 04:06:50;;;;;;;5.78;3.90;;;;;;;1.12;62.39;99050.72;5034568;28;20057;-57
2023/03/31 04:09:16;;;;;;;4.95;3.97;;;;;;;1.19;62.42;99050.38;5034558;28;20029;-57
2023/03/31 04:11:41;;;;;;;7.13;3.95;;;;;;;1.21;62.06;99041.47;5034287;28;20081;-56
2023/03/31 04:14:07;;;;;;;10.25;4.25;;;;;;;1.10;62.30;99020.09;5034684;28;20040;-52
2023/03/31 04:16:33;;;;;;;6.35;4.13;;;;;;;1.04;62.02;98991.44;5032578;28;20057;-53
2023/03/31 04:19:02;;;;;;;5.55;3.95;;;;;;;1.36;62.48;99036.25;5034263;28;20095;-53
2023/03/31 04:21:29;;;;;;;5.13;4.53;;;;;;;1.39;62.11;99042.22;5034201;28;20230;-59
2023/03/31 04:24:00;;;;;;;6.13;4.18;;;;;;;1.28;62.32;99027.00;5034319;28;20029;-56
2023/03/31 04:26:37;;;;;;;5.78;4.20;;;;;;;1.41;62.28;99035.09;5033140;28;20029;-56
2023/03/31 04:29:04;;;;;;;5.72;4.38;;;;;;;1.35;61.83;99037.19;5015360;28;20030;-57
2023/03/31 04:31:30;;;;;;;10.45;4.15;;;;;;;1.39;62.14;99050.16;5014402;28;20038;-58
2023/03/31 04:34:01;;;;;;;7.20;4.72;;;;;;;1.33;62.12;99039.94;5013578;28;20452;-55
2023/03/31 04:36:30;;;;;;;5.60;4.00;;;;;;;1.44;61.89;99044.59;5013918;28;20060;-54
2023/03/31 04:39:01;;;;;;;7.07;4.40;;;;;;;1.52;61.55;99033.63;5013818;28;20053;-55
2023/03/31 04:41:26;;;;;;;4.75;3.83;;;;;;;1.65;61.98;99031.13;5014323;28;20042;-52
2023/03/31 04:43:52;;;;;;;5.88;4.15;;;;;;;1.72;61.58;99024.59;5013942;28;20109;-57
2023/03/31 04:46:19;;;;;;;5.15;4.10;;;;;;;1.79;61.21;99033.84;5012855;28;20120;-57
2023/03/31 04:48:45;;;;;;;8.77;4.68;;;;;;;1.99;60.70;99026.59;5015008;28;20026;-55
2023/03/31 04:51:14;;;;;;;6.57;4.05;;;;;;;2.12;60.16;99003.78;5014082;28;20115;-61
2023/03/31 04:53:39;;;;;;;6.60;4.18;;;;;;;2.33;59.42;99007.91;5014345;28;20478;-55
2023/03/31 04:56:06;;;;;;;5.95;4.00;;;;;;;2.35;59.02;99019.22;5013716;28;20104;-57
2023/03/31 04:58:32;;;;;;;4.05;3.38;;;;;;;2.24;59.59;99017.22;5017473;28;20036;-56
2023/03/31 05:00:57;;;;;;;4.28;3.42;;;;;;;2.20;59.84;99013.91;5033204;28;20379;-58
2023/03/31 05:03:22;;;;;;;5.95;3.60;;;;;;;2.18;59.86;99030.78;5033478;28;20034;-57
2023/03/31 05:05:48;;;;;;;3.55;2.45;;;;;;;2.57;58.09;99034.63;5033332;28;20029;-56
2023/03/31 05:08:13;;;;;;;5.18;3.60;;;;;;;2.17;59.25;99037.84;5031700;28;20036;-55
2023/03/31 05:10:39;;;;;;;5.07;3.72;;;;;;;1.90;60.03;99035.00;5013989;28;20497;-52
2023/03/31 05:13:04;;;;;;;6.13;3.42;;;;;;;1.82;60.02;99025.75;5013633;28;20084;-54
2023/03/31 05:15:30;;;;;;;6.07;3.80;;;;;;;1.57;61.86;99028.97;5013332;28;20034;-59
2023/03/31 05:17:57;;;;;;;6.07;3.70;;;;;;;1.57;62.21;99031.59;5013330;28;20087;-56
2023/03/31 05:20:23;;;;;;;4.93;3.85;;;;;;;1.65;61.65;99041.69;5030875;28;20025;-57
2023/03/31 05:22:49;;;;;;;5.82;4.00;;;;;;;1.77;62.37;99032.22;5032824;28;20048;-53
2023/03/31 05:25:17;;;;;;;4.93;4.00;;;;;;;1.91;61.56;99039.34;5032957;28;20108;-54
2023/03/31 05:27:44;;;;;;;6.95;4.55;;;;;;;2.03;61.36;99030.75;5031736;28;20100;-63
2023/03/31 05:30:10;;;;;;;10.60;4.32;;;;;;;2.03;60.58;99003.47;5032470;28;20094;-54
2023/03/31 05:32:35;;;;;;;6.60;4.22;;;;;;;2.29;59.87;99037.16;5032832;28;20021;-58
2023/03/31 05:35:01;;;;;;;7.43;3.38;;;;;;;2.40;59.24;99033.84;5032979;28;20041;-56
2023/03/31 05:37:27;;;;;;;6.32;4.32;;;;;;;2.14;60.10;99030.94;5030571;28;20101;-56
2023/03/31 05:39:53;;;;;;;6.65;4.55;;;;;;;1.82;61.81;99027.56;5019787;28;20062;-58
2023/03/31 05:42:18;;;;;;;5.63;4.35;;;;;;;1.85;62.67;99017.66;5013123;28;20041;-55
2023/03/31 05:44:44;;;;;;;8.90;4.78;;;;;;;2.01;61.62;99012.34;4995202;28;20038;-58
2023/03/31 05:47:10;;;;;;;9.10;4.63;;;;;;;2.21;61.46;99022.69;5013132;28;20041;-57
2023/03/31 05:49:37;;;;;;;7.13;4.70;;;;;;;2.36;61.25;99026.22;5022427;28;20044;-57
2023/03/31 05:52:03;;;;;;;7.03;4.53;;;;;;;2.69;60.67;99027.75;5032971;28;20112;-56
2023/03/31 05:54:29;;;;;;;6.82;4.82;;;;;;;3.10;59.67;99012.91;5032623;28;20042;-56
2023/03/31 05:56:54;;;;;;;7.70;6.05;;;;;;;3.53;58.46;98994.28;5032461;28;20026;-57
2023/03/31 05:59:20;;;;;;;13.20;5.50;;;;;;;3.86;57.32;98994.84;5024600;28;20091;-53
2023/03/31 06:01:45;;;;;;;10.20;5.13;;;;;;;4.07;56.15;98989.91;5012545;28;20072;-56
2023/03/31 06:04:11;;;;;;;6.82;5.03;;;;;;;4.12;55.84;98987.81;5012951;28;20044;-54
2023/03/31 06:06:36;;;;;;;8.18;5.25;;;;;;;4.05;55.94;98989.16;5012653;28;20033;-54
2023/03/31 06:09:04;;;;;;;7.78;5.00;;;;;;;3.93;56.43;98990.00;5017190;28;20034;-55
2023/03/31 06:11:30;;;;;;;7.55;5.38;;;;;;;3.92;55.98;98983.84;5031181;28;20041;-56
2023/03/31 06:13:55;;;;;;;8.45;5.32;;;;;;;3.75;56.40;98949.69;5032512;28;20045;-55
2023/03/31 06:16:21;;;;;;;7.13;5.28;;;;;;;4.02;56.17;98992.00;5032358;28;20418;-57
2023/03/31 06:18:46;;;;;;;8.25;5.32;;;;;;;3.95;56.11;98974.84;5029262;28;20040;-60
2023/03/31 06:21:17;;;;;;;10.02;4.95;;;;;;;3.98;56.27;98990.53;5011177;28;20096;-54
2023/03/31 06:23:44;;;;;;;10.05;5.45;;;;;;;3.96;55.88;98990.63;5012229;28;20025;-53
2023/03/31 06:26:15;;;;;;;10.77;5.05;;;;;;;4.03;55.55;98993.72;5011886;28;20022;-54
2023/03/31 06:28:42;;;;;;;9.32;5.43;;;;;;;3.99;56.42;98995.72;5014000;28;20038;-53
2023/03/31 06:31:15;;;;;;;8.45;5.32;;;;;;;4.28;56.32;99002.66;5031530;28;20029;-58
2023/03/31 06:33:42;;;;;;;10.57;4.82;;;;;;;4.41;55.34;99006.19;5026648;28;20018;-53
2023/03/31 06:36:08;;;;;;;10.02;5.97;;;;;;;4.47;54.87;99001.41;5012599;28;20044;-61
2023/03/31 06:38:35;;;;;;;9.20;5.72;;;;;;;4.06;55.93;98974.97;5012498;28;20054;-59
2023/03/31 06:41:01;;;;;;;8.85;6.60;;;;;;;4.11;55.43;98990.56;5011645;28;20041;-54
2023/03/31 06:43:27;;;;;;;11.40;5.78;;;;;;;4.02;56.23;98984.94;5012000;28;20042;-57
2023/03/31 06:45:53;;;;;;;6.57;5.78;;;;;;;3.90;56.25;98995.50;5011428;28;20037;-55
2023/03/31 06:48:19;;;;;;;12.40;5.45;;;;;;;3.81;56.44;98984.53;5012395;28;20026;-56
2023/03/31 06:50:44;;;;;;;9.30;5.93;;;;;;;3.81;56.59;98979.25;5012401;28;20038;-55
2023/03/31 06:53:10;;;;;;;7.70;6.07;;;;;;;3.83;56.35;98976.50;5012377;28;20067;-53
2023/03/31 06:55:37;;;;;;;7.72;5.25;;;;;;;3.88;56.27;98975.25;5012833;28;20457;-53
2023/03/31 06:58:03;;;;;;;9.57;5.32;;;;;;;4.01;55.50;98985.03;5016166;28;20092;-52
2023/03/31 07:00:29;;;;;;;8.52;5.22;;;;;;;4.09;55.65;98988.00;5015871;28;20030;-53
2023/03/31 07:02:54;;;;;;;12.07;5.50;;;;;;;4.04;55.43;98982.16;5016911;28;20096;-51
2023/03/31 07:05:26;;;;;;;8.02;5.32;;;;;;;4.06;55.90;98990.03;5016262;28;20041;-54
2023/03/31 07:07:56;;;;;;;10.80;5.40;;;;;;;4.06;56.02;98988.19;5016038;28;20034;-54
2023/03/31 07:10:23;;;;;;;8.20;5.70;;;;;;;4.05;55.86;98986.50;5015966;28;20029;-54
2023/03/31 07:12:48;;;;;;;8.70;5.95;;;;;;;4.07;55.62;98978.47;5015738;28;20384;-59
2023/03/31 07:15:14;;;;;;;8.52;5.50;;;;;;;4.15;56.00;98977.00;5016076;28;20034;-51
2023/03/31 07:17:43;;;;;;;8.63;5.50;;;;;;;4.29;55.54;98972.53;5015528;28;20049;-54
2023/03/31 07:20:16;;;;;;;11.20;5.40;;;;;;;4.45;55.69;98975.84;5015701;28;20435;-54
2023/03/31 07:22:46;;;;;;;13.05;5.57;;;;;;;4.52;54.68;98972.78;5015592;28;20080;-53
2023/03/31 07:25:14;;;;;;;7.43;5.47;;;;;;;4.51;55.15;98966.63;5015573;28;20110;-52
2023/03/31 07:27:40;;;;;;;7.03;5.40;;;;;;;4.45;54.71;98973.19;5015454;28;20104;-58
2023/03/31 07:30:08;;;;;;;8.10;4.95;;;;;;;4.40;55.07;98970.03;5015213;28;20075;-59
2023/03/31 07:32:34;;;;;;;5.90;4.88;;;;;;;4.32;55.18;98961.72;5016506;28;20041;-55
2023/03/31 07:34:59;;;;;;;8.05;5.25;;;;;;;4.33;55.91;98974.03;5020334;28;20448;-57
2023/03/31 07:37:25;;;;;;;13.05;6.43;;;;;;;4.39;55.09;98972.78;5025221;28;20037;-60
2023/03/31 07:39:50;;;;;;;8.00;5.72;;;;;;;4.44;55.01;98966.19;5015276;28;20484;-60
2023/03/31 07:42:16;;;;;;;12.00;5.95;;;;;;;4.43;54.66;98964.50;5016024;28;20468;-59
2023/03/31 07:44:42;;;;;;;6.30;5.43;;;;;;;4.31;55.68;98970.63;5015036;28;20041;-57
2023/03/31 07:47:07;;;;;;;12.77;5.95;;;;;;;4.25;55.66;98966.63;5015381;28;20532;-58
2023/03/31 07:49:33;;;;;;;11.43;6.28;;;;;;;4.30;55.13;98964.50;5014146;28;20030;-58
2023/03/31 07:51:59;;;;;;;13.55;6.40;;;;;;;4.29;55.44;98968.09;5014453;28;20041;-55
2023/03/31 07:54:25;;;;;;;15.05;6.20;;;;;;;4.32;55.67;98972.34;5015248;28;20041;-58
2023/03/31 07:56:51;;;;;;;12.52;5.57;;;;;;;4.44;55.60;98968.84;5031200;28;20053;-57
2023/03/31 07:59:16;;;;;;;8.95;5.90;;;;;;;4.60;55.78;98975.75;5031101;28;20049;-59
2023/03/31 08:01:42;;;;;;;12.18;6.40;;;;;;;4.64;54.58;98971.06;5014756;28;20034;-55
2023/03/31 08:04:09;;;;;;;12.45;5.75;;;;;;;4.56;55.00;98961.00;5013449;28;20022;-57
2023/03/31 08:06:34;;;;;;;9.38;5.72;;;;;;;4.55;54.81;98956.66;5014740;28;20042;-56
2023/03/31 08:09:00;;;;;;;8.80;5.60;;;;;;;4.53;54.74;98959.41;5014381;28;20033;-56
2023/03/31 08:11:25;;;;;;;8.23;6.18;;;;;;;4.33;55.18;98923.69;5023223;28;20029;-60
2023/03/31 08:13:51;;;;;;;9.10;6.18;;;;;;;4.51;54.42;98948.06;5034739;28;20035;-58
2023/03/31 08:16:16;;;;;;;8.60;5.75;;;;;;;4.62;54.81;98933.22;5034383;28;20196;-57
2023/03/31 08:18:42;;;;;;;13.75;5.80;;;;;;;4.95;54.59;98935.28;5034443;28;20037;-58
2023/03/31 08:21:10;;;;;;;9.50;5.75;;;;;;;5.15;53.97;98941.78;5033932;28;20029;-52
2023/03/31 08:23:36;;;;;;;9.05;5.60;;;;;;;5.27;53.88;98942.69;5034979;28;20440;-52
2023/03/31 08:26:14;;;;;;;10.75;5.70;;;;;;;5.39;52.86;98934.81;5034784;28;20041;-59
2023/03/31 08:28:39;;;;;;;9.65;5.88;;;;;;;5.49;52.89;98930.50;5034232;28;20045;-57
2023/03/31 08:31:07;;;;;;;10.80;5.72;;;;;;;5.51;52.64;98939.19;5034596;28;20029;-58
2023/03/31 08:33:33;;;;;;;10.93;5.65;;;;;;;5.45;52.55;98918.44;5034307;28;20056;-54
2023/03/31 08:36:03;;;;;;;7.00;5.25;;;;;;;5.56;52.56;98926.47;5034102;28;20116;-55
2023/03/31 08:38:30;;;;;;;11.90;5.63;;;;;;;5.53;52.93;98921.34;5034121;28;20041;-57
2023/03/31 08:41:02;;;;;;;10.98;5.85;;;;;;;5.60;52.70;98912.00;5034303;28;20080;-57
2023/03/31 08:43:33;;;;;;;11.90;5.72;;;;;;;5.59;52.65;98915.59;5034302;28;20113;-56
2023/03/31 08:46:00;;;;;;;11.00;5.70;;;;;;;5.58;52.73;98900.63;5034156;28;20072;-55
2023/03/31 08:48:29;;;;;;;9.20;4.78;;;;;;;5.74;52.27;98895.00;5033863;28;20374;-53
2023/03/31 08:51:04;;;;;;;10.85;5.32;;;;;;;5.87;51.54;98897.59;5034170;28;20041;-57
2023/03/31 08:53:39;;;;;;;5.63;4.87;;;;;;;6.17;51.49;98888.25;5033844;28;20025;-58
2023/03/31 08:56:14;;;;;;;6.55;4.82;;;;;;;6.37;50.83;98883.19;5034034;28;20022;-55
2023/03/31 08:58:40;;;;;;;10.57;5.65;;;;;;;6.58;50.45;98887.78;5033812;28;20083;-58
2023/03/31 09:01:15;;;;;;;7.40;4.57;;;;;;;6.80;50.13;98889.56;5033254;28;20037;-58
2023/03/31 09:04:27;;;;;;;11.63;5.05;;;;;;;6.92;50.01;98892.22;5033925;28;20066;-58
2023/03/31 09:06:55;;;;;;;8.48;4.60;;;;;;;6.70;49.13;98881.47;5033897;28;20041;-59
2023/03/31 09:09:29;;;;;;;5.93;4.72;;;;;;;6.49;49.98;98880.50;5033870;28;20056;-59
2023/03/31 09:12:01;;;;;;;11.27;5.00;;;;;;;6.36;50.45;98885.97;5033731;28;20033;-62
2023/03/31 09:14:49;;;;;;;6.57;4.05;;;;;;;6.37;50.37;98880.53;5033242;28;20333;-57
2023/03/31 09:17:19;;;;;;;7.65;4.25;;;;;;;6.23;50.51;98873.63;5031888;28;20041;-58
2023/03/31 09:19:53;;;;;;;7.00;4.60;;;;;;;6.12;50.63;98886.91;5032399;28;20033;-57
2023/03/31 09:22:30;;;;;;;6.90;3.53;;;;;;;5.95;50.61;98877.53;5033334;28;20033;-60
2023/03/31 09:25:16;;;;;;;7.80;3.35;;;;;;;5.88;51.41;98871.84;5033183;28;20033;-61
2023/03/31 09:27:43;;;;;;;8.68;4.22;;;;;;;5.81;51.53;98868.84;5032323;28;20033;-59
2023/03/31 09:30:16;;;;;;;9.90;4.25;;;;;;;5.81;51.88;98862.66;5033320;28;20120;-55
2023/03/31 09:32:43;;;;;;;8.38;4.43;;;;;;;5.86;51.78;98857.84;5033353;28;20025;-57
2023/03/31 09:35:20;;;;;;;7.80;4.20;;;;;;;5.88;51.39;98832.84;5032137;28;20171;-53
2023/03/31 09:37:46;;;;;;;12.63;4.60;;;;;;;5.92;51.47;98843.25;5033140;28;20034;-59
2023/03/31 09:40:18;;;;;;;9.05;4.40;;;;;;;5.92;51.39;98840.59;5032067;28;20049;-59
2023/03/31 09:42:46;;;;;;;8.38;4.40;;;;;;;5.96;51.81;98840.25;5033108;28;20037;-59
2023/03/31 09:45:17;;;;;;;10.02;4.40;;;;;;;6.04;51.28;98829.06;5032227;28;20040;-56
2023/03/31 09:47:46;;;;;;;7.60;4.15;;;;;;;6.01;51.14;98823.94;5032890;28;20037;-59
2023/03/31 09:50:11;;;;;;;9.05;4.43;;;;;;;5.97;51.24;98814.50;5033207;28;20033;-56
2023/03/31 09:52:41;;;;;;;6.57;3.85;;;;;;;5.94;51.49;98802.31;5032141;28;20041;-60
2023/03/31 09:55:19;;;;;;;6.05;4.30;;;;;;;6.09;51.54;98805.63;5032873;28;20342;-57
2023/03/31 09:57:45;;;;;;;7.28;4.88;;;;;;;5.99;50.91;98804.59;5033089;28;20040;-60
2023/03/31 10:00:14;;;;;;;5.13;3.92;;;;;;;6.05;51.01;98809.50;5033006;28;20109;-57
2023/03/31 10:02:51;;;;;;;7.65;4.20;;;;;;;6.16;51.29;98806.81;5032701;28;20124;-58
2023/03/31 10:05:49;;;;;;;8.35;4.40;;;;;;;6.29;51.11;98803.22;5031955;28;20045;-56
2023/03/31 10:08:41;;;;;;;5.55;4.00;;;;;;;6.35;50.73;98796.53;5032984;28;20045;-58
2023/03/31 10:11:10;;;;;;;6.78;3.90;;;;;;;6.34;50.37;98803.69;5032645;28;20041;-59
2023/03/31 10:13:42;;;;;;;12.18;4.53;;;;;;;6.34;50.47;98803.69;5032415;28;20070;-61
2023/03/31 10:16:12;;;;;;;7.20;3.55;;;;;;;6.32;50.52;98802.97;5032746;28;20041;-60
2023/03/31 10:18:40;;;;;;;9.00;4.13;;;;;;;6.37;50.53;98806.09;5032779;28;20032;-55
2023/03/31 10:21:18;;;;;;;11.27;3.95;;;;;;;6.46;50.69;98797.38;5032675;28;20025;-56
2023/03/31 10:23:48;;;;;;;5.93;3.53;;;;;;;6.49;50.38;98798.09;5032591;28;20357;-60
2023/03/31 10:26:26;;;;;;;6.35;3.95;;;;;;;6.60;50.42;98801.56;5032886;28;20034;-57
2023/03/31 10:28:54;;;;;;;7.43;3.65;;;;;;;6.52;49.91;98789.88;5032761;28;20095;-55
2023/03/31 10:31:32;;;;;;;6.47;3.75;;;;;;;6.57;49.76;98795.69;5033999;28;20041;-60
2023/03/31 10:33:58;;;;;;;10.07;4.00;;;;;;;6.41;50.42;98786.25;5036622;28;20034;-57
2023/03/31 10:36:28;;;;;;;7.43;4.43;;;;;;;6.35;51.03;98778.78;5036714;28;20083;-59
2023/03/31 10:38:55;;;;;;;6.65;3.95;;;;;;;6.22;50.90;98778.06;5036515;28;20099;-60
2023/03/31 10:41:27;;;;;;;8.82;4.35;;;;;;;6.16;50.98;98777.59;5035220;28;20411;-58
2023/03/31 10:43:58;;;;;;;12.07;4.80;;;;;;;6.15;50.80;98762.59;5036294;28;20029;-58
2023/03/31 10:46:47;;;;;;;12.60;4.70;;;;;;;5.99;51.98;98746.16;5036510;28;20064;-57
2023/03/31 10:49:22;;;;;;;7.78;4.35;;;;;;;5.99;52.04;98736.38;5036171;28;20385;-57
2023/03/31 10:51:55;;;;;;;10.95;4.45;;;;;;;6.07;51.67;98738.47;5035946;28;20033;-58
2023/03/31 10:54:21;;;;;;;10.73;4.47;;;;;;;6.14;51.67;98744.13;5035914;28;20485;-55
2023/03/31 10:56:50;;;;;;;9.13;3.75;;;;;;;6.00;51.44;98716.81;5036132;28;20465;-60
2023/03/31 10:59:28;;;;;;;9.15;3.92;;;;;;;6.29;51.47;98758.84;5036182;28;20438;-57
2023/03/31 11:02:02;;;;;;;8.13;3.83;;;;;;;6.21;51.20;98755.97;5035852;28;20445;-58
2023/03/31 11:04:39;;;;;;;10.88;3.85;;;;;;;6.16;51.26;98750.19;5036181;28;20443;-60
2023/03/31 11:07:30;;;;;;;9.75;4.18;;;;;;;6.00;52.24;98751.34;5035905;28;20059;-60
2023/03/31 11:10:13;;;;;;;8.48;3.85;;;;;;;5.80;52.68;98746.75;5035462;28;20038;-56
2023/03/31 11:12:50;;;;;;;10.45;4.10;;;;;;;5.75;52.62;98729.38;5035858;28;20122;-59
2023/03/31 11:15:48;;;;;;;8.65;4.10;;;;;;;5.64;53.69;98734.66;5035615;28;20033;-59
2023/03/31 11:18:31;;;;;;;10.30;4.35;;;;;;;5.70;53.43;98730.69;5034295;28;20092;-57
2023/03/31 11:21:13;;;;;;;10.15;4.38;;;;;;;5.58;54.29;98741.31;5036018;28;20038;-62
2023/03/31 11:24:10;;;;;;;13.00;4.72;;;;;;;5.68;54.76;98740.59;5035226;28;20412;-58
2023/03/31 11:26:54;;;;;;;17.60;5.38;;;;;;;5.67;54.50;98730.94;5035185;28;20360;-59
2023/03/31 11:29:45;;;;;;;17.60;5.18;;;;;;;5.62;54.41;98733.94;5035369;28;20348;-57
2023/03/31 11:32:35;;;;;;;8.10;4.00;;;;;;;5.75;53.86;98726.72;5035367;28;20029;-58
2023/03/31 11:35:08;;;;;;;6.40;4.97;;;;;;;5.59;53.85;98724.41;5035407;28;20482;-57
2023/03/31 11:37:55;;;;;;;9.00;5.50;;;;;;;5.44;54.36;98712.31;5035566;28;20104;-57
2023/03/31 11:40:48;;;;;;;8.50;4.95;;;;;;;5.28;55.52;98717.97;5035051;28;20049;-58
2023/03/31 11:43:33;;;;;;;11.98;5.18;;;;;;;4.97;55.40;98686.66;5034183;28;20115;-59
2023/03/31 11:46:14;;;;;;;8.50;4.82;;;;;;;5.38;55.30;98715.47;5035693;28;20065;-60
2023/03/31 11:48:42;;;;;;;7.60;5.18;;;;;;;5.11;55.64;98711.31;5035489;28;20524;-59
2023/03/31 11:51:17;;;;;;;11.38;5.28;;;;;;;5.13;55.70;98706.72;5035354;28;20049;-59
2023/03/31 11:53:45;;;;;;;9.25;4.75;;;;;;;5.08;56.34;98703.59;5035451;28;20029;-56
2023/03/31 11:56:12;;;;;;;7.95;5.57;;;;;;;5.02;56.92;98702.22;5035230;28;20042;-57